sensor_id;sensor_type;location;lat;lon;timestamp;temperature;humidity
32446;DHT22;18899;50.748;7.102;2022-12-18T00:01:03;-3.50;99.90
32446;DHT22;18899;50.748;7.102;2022-12-18T00:03:32;-3.40;99.90
32446;DHT22;18899;50.748;7.102;2022-12-18T00:05:58;-3.30;99.90
32446;DHT22;18899;50.748;7.102;2022-12-18T00:08:24;-3.50;99.90
32446;DHT22;18899;50.748;7.102;2022-12-18T00:10:49;-3.50;99.90
32446;DHT22;18899;50.748;7.102;2022-12-18T00:13:15;-3.40;99.90
32446;DHT22;18899;50.748;7.102;2022-12-18T00:15:40;-3.30;99.90
32446;DHT22;18899;50.748;7.102;2022-12-18T00:18:06;-3.30;99.90
32446;DHT22;18899;50.748;7.102;2022-12-18T00:20:36;-3.30;99.90
32446;DHT22;18899;50.748;7.102;2022-12-18T00:23:02;-3.70;99.90
32446;DHT22;18899;50.748;7.102;2022-12-18T00:25:28;-3.70;99.90
32446;DHT22;18899;50.748;7.102;2022-12-18T00:27:53;-3.60;99.90
32446;DHT22;18899;50.748;7.102;2022-12-18T00:30:19;-3.50;99.90
32446;DHT22;18899;50.748;7.102;2022-12-18T00:32:44;-3.50;99.90
32446;DHT22;18899;50.748;7.102;2022-12-18T00:35:10;-3.50;99.90
32446;DHT22;18899;50.748;7.102;2022-12-18T00:37:36;-3.40;99.90
32446;DHT22;18899;50.748;7.102;2022-12-18T00:40:02;-3.40;99.90
32446;DHT22;18899;50.748;7.102;2022-12-18T00:42:28;-3.50;99.90
32446;DHT22;18899;50.748;7.102;2022-12-18T00:45:12;-3.50;99.90
32446;DHT22;18899;50.748;7.102;2022-12-18T00:47:38;-3.50;99.90
32446;DHT22;18899;50.748;7.102;2022-12-18T00:50:04;-3.50;99.90
32446;DHT22;18899;50.748;7.102;2022-12-18T00:52:29;-3.50;99.90
32446;DHT22;18899;50.748;7.102;2022-12-18T00:54:55;-3.40;99.90
32446;DHT22;18899;50.748;7.102;2022-12-18T00:57:20;-3.50;99.90
32446;DHT22;18899;50.748;7.102;2022-12-18T00:59:46;-3.60;99.90
32446;DHT22;18899;50.748;7.102;2022-12-18T01:02:13;-4.10;99.90
32446;DHT22;18899;50.748;7.102;2022-12-18T01:04:38;-4.20;99.90
32446;DHT22;18899;50.748;7.102;2022-12-18T01:07:04;-4.00;99.90
32446;DHT22;18899;50.748;7.102;2022-12-18T01:09:29;-3.90;99.90
32446;DHT22;18899;50.748;7.102;2022-12-18T01:11:55;-3.70;99.90
32446;DHT22;18899;50.748;7.102;2022-12-18T01:14:20;-3.70;99.90
32446;DHT22;18899;50.748;7.102;2022-12-18T01:16:46;-3.60;99.90
32446;DHT22;18899;50.748;7.102;2022-12-18T01:19:11;-3.60;99.90
32446;DHT22;18899;50.748;7.102;2022-12-18T01:21:37;-3.60;99.90
32446;DHT22;18899;50.748;7.102;2022-12-18T01:24:03;-3.70;99.90
32446;DHT22;18899;50.748;7.102;2022-12-18T01:26:28;-3.70;99.90
32446;DHT22;18899;50.748;7.102;2022-12-18T01:28:55;-3.90;99.90
32446;DHT22;18899;50.748;7.102;2022-12-18T01:31:24;-3.90;99.90
32446;DHT22;18899;50.748;7.102;2022-12-18T01:33:50;-4.00;99.90
32446;DHT22;18899;50.748;7.102;2022-12-18T01:36:24;-3.90;99.90
32446;DHT22;18899;50.748;7.102;2022-12-18T01:38:51;-3.90;99.90
32446;DHT22;18899;50.748;7.102;2022-12-18T01:41:18;-3.90;99.90
32446;DHT22;18899;50.748;7.102;2022-12-18T01:46:15;-3.80;99.90
32446;DHT22;18899;50.748;7.102;2022-12-18T01:48:40;-3.80;99.90
32446;DHT22;18899;50.748;7.102;2022-12-18T01:51:08;-3.80;99.90
32446;DHT22;18899;50.748;7.102;2022-12-18T01:53:36;-3.90;99.90
32446;DHT22;18899;50.748;7.102;2022-12-18T01:56:02;-3.90;99.90
32446;DHT22;18899;50.748;7.102;2022-12-18T01:58:43;-3.90;99.90
32446;DHT22;18899;50.748;7.102;2022-12-18T02:01:11;-3.90;99.90
32446;DHT22;18899;50.748;7.102;2022-12-18T02:03:39;-4.00;99.90
32446;DHT22;18899;50.748;7.102;2022-12-18T02:06:18;-4.10;99.90
32446;DHT22;18899;50.748;7.102;2022-12-18T02:14:36;-3.80;99.90
32446;DHT22;18899;50.748;7.102;2022-12-18T02:27:39;-3.80;99.90
32446;DHT22;18899;50.748;7.102;2022-12-18T02:30:06;-3.80;99.90
32446;DHT22;18899;50.748;7.102;2022-12-18T02:32:40;-3.80;99.90
32446;DHT22;18899;50.748;7.102;2022-12-18T02:35:08;-3.80;99.90
32446;DHT22;18899;50.748;7.102;2022-12-18T02:37:35;-3.90;99.90
32446;DHT22;18899;50.748;7.102;2022-12-18T02:40:03;-3.90;99.90
32446;DHT22;18899;50.748;7.102;2022-12-18T02:42:29;-4.00;99.90
32446;DHT22;18899;50.748;7.102;2022-12-18T02:44:55;-3.90;99.90
32446;DHT22;18899;50.748;7.102;2022-12-18T02:47:23;-3.90;99.90
32446;DHT22;18899;50.748;7.102;2022-12-18T02:55:19;-3.90;99.90
32446;DHT22;18899;50.748;7.102;2022-12-18T02:57:56;-4.00;99.90
32446;DHT22;18899;50.748;7.102;2022-12-18T03:00:30;-4.00;99.90
32446;DHT22;18899;50.748;7.102;2022-12-18T03:03:08;-4.10;99.90
32446;DHT22;18899;50.748;7.102;2022-12-18T03:05:52;-4.20;99.90
32446;DHT22;18899;50.748;7.102;2022-12-18T03:08:28;-4.20;99.90
32446;DHT22;18899;50.748;7.102;2022-12-18T03:11:02;-4.20;99.90
32446;DHT22;18899;50.748;7.102;2022-12-18T03:13:49;-4.10;99.90
32446;DHT22;18899;50.748;7.102;2022-12-18T03:16:24;-4.10;99.90
32446;DHT22;18899;50.748;7.102;2022-12-18T03:19:28;-4.10;99.90
32446;DHT22;18899;50.748;7.102;2022-12-18T03:21:49;-4.00;99.90
32446;DHT22;18899;50.748;7.102;2022-12-18T03:24:16;-4.10;99.90
32446;DHT22;18899;50.748;7.102;2022-12-18T03:26:44;-4.00;99.90
32446;DHT22;18899;50.748;7.102;2022-12-18T03:29:38;-4.00;99.90
32446;DHT22;18899;50.748;7.102;2022-12-18T03:32:25;-4.10;99.90
32446;DHT22;18899;50.748;7.102;2022-12-18T03:34:53;-4.10;99.90
32446;DHT22;18899;50.748;7.102;2022-12-18T03:37:20;-4.20;99.90
32446;DHT22;18899;50.748;7.102;2022-12-18T03:39:45;-4.20;99.90
32446;DHT22;18899;50.748;7.102;2022-12-18T03:42:28;-4.20;99.90
32446;DHT22;18899;50.748;7.102;2022-12-18T03:48:16;-4.30;99.90
32446;DHT22;18899;50.748;7.102;2022-12-18T03:51:04;-4.30;99.90
32446;DHT22;18899;50.748;7.102;2022-12-18T03:56:00;-4.20;99.90
32446;DHT22;18899;50.748;7.102;2022-12-18T03:58:28;-4.20;99.90
32446;DHT22;18899;50.748;7.102;2022-12-18T04:00:56;-4.30;99.90
32446;DHT22;18899;50.748;7.102;2022-12-18T04:03:24;-4.30;99.90
32446;DHT22;18899;50.748;7.102;2022-12-18T04:05:52;-4.20;99.90
32446;DHT22;18899;50.748;7.102;2022-12-18T04:08:20;-4.30;99.90
32446;DHT22;18899;50.748;7.102;2022-12-18T04:10:46;-4.20;99.90
32446;DHT22;18899;50.748;7.102;2022-12-18T04:13:11;-4.30;99.90
32446;DHT22;18899;50.748;7.102;2022-12-18T04:15:37;-4.30;99.90
32446;DHT22;18899;50.748;7.102;2022-12-18T04:18:04;-4.40;99.90
32446;DHT22;18899;50.748;7.102;2022-12-18T04:20:29;-4.30;99.90
32446;DHT22;18899;50.748;7.102;2022-12-18T04:22:55;-4.40;99.90
32446;DHT22;18899;50.748;7.102;2022-12-18T04:25:21;-4.30;99.90
32446;DHT22;18899;50.748;7.102;2022-12-18T04:27:46;-4.40;99.90
32446;DHT22;18899;50.748;7.102;2022-12-18T04:30:12;-4.50;99.90
32446;DHT22;18899;50.748;7.102;2022-12-18T04:32:37;-4.60;99.90
32446;DHT22;18899;50.748;7.102;2022-12-18T04:35:03;-4.60;99.90
32446;DHT22;18899;50.748;7.102;2022-12-18T04:37:32;-4.60;99.90
32446;DHT22;18899;50.748;7.102;2022-12-18T04:39:57;-4.50;99.90
32446;DHT22;18899;50.748;7.102;2022-12-18T04:42:23;-4.50;99.90
32446;DHT22;18899;50.748;7.102;2022-12-18T04:44:49;-4.40;99.90
32446;DHT22;18899;50.748;7.102;2022-12-18T04:47:14;-4.50;99.90
32446;DHT22;18899;50.748;7.102;2022-12-18T04:49:40;-4.50;99.90
32446;DHT22;18899;50.748;7.102;2022-12-18T04:52:05;-4.40;99.90
32446;DHT22;18899;50.748;7.102;2022-12-18T04:54:32;-4.50;99.90
32446;DHT22;18899;50.748;7.102;2022-12-18T04:56:58;-4.50;99.90
32446;DHT22;18899;50.748;7.102;2022-12-18T04:59:23;-4.50;99.90
32446;DHT22;18899;50.748;7.102;2022-12-18T05:01:49;-4.40;99.90
32446;DHT22;18899;50.748;7.102;2022-12-18T05:04:14;-4.30;99.90
32446;DHT22;18899;50.748;7.102;2022-12-18T05:06:40;-4.30;99.90
32446;DHT22;18899;50.748;7.102;2022-12-18T05:09:05;-4.50;99.90
32446;DHT22;18899;50.748;7.102;2022-12-18T05:11:31;-4.50;99.90
32446;DHT22;18899;50.748;7.102;2022-12-18T05:13:56;-4.50;99.90
32446;DHT22;18899;50.748;7.102;2022-12-18T05:16:22;-4.50;99.90
32446;DHT22;18899;50.748;7.102;2022-12-18T05:18:47;-4.50;99.90
32446;DHT22;18899;50.748;7.102;2022-12-18T05:21:13;-4.60;99.90
32446;DHT22;18899;50.748;7.102;2022-12-18T05:23:38;-4.70;99.90
32446;DHT22;18899;50.748;7.102;2022-12-18T05:26:05;-4.70;99.90
32446;DHT22;18899;50.748;7.102;2022-12-18T05:28:32;-4.80;99.90
32446;DHT22;18899;50.748;7.102;2022-12-18T05:31:00;-4.70;99.90
32446;DHT22;18899;50.748;7.102;2022-12-18T05:33:30;-4.50;99.90
32446;DHT22;18899;50.748;7.102;2022-12-18T05:35:58;-4.40;99.90
32446;DHT22;18899;50.748;7.102;2022-12-18T05:38:29;-4.40;99.90
32446;DHT22;18899;50.748;7.102;2022-12-18T05:40:55;-4.30;99.90
32446;DHT22;18899;50.748;7.102;2022-12-18T05:43:22;-4.30;99.90
32446;DHT22;18899;50.748;7.102;2022-12-18T05:45:48;-4.30;99.90
32446;DHT22;18899;50.748;7.102;2022-12-18T05:48:14;-4.30;99.90
32446;DHT22;18899;50.748;7.102;2022-12-18T05:50:41;-4.30;99.90
32446;DHT22;18899;50.748;7.102;2022-12-18T05:53:08;-4.30;99.90
32446;DHT22;18899;50.748;7.102;2022-12-18T05:55:34;-4.50;99.90
32446;DHT22;18899;50.748;7.102;2022-12-18T05:58:00;-4.50;99.90
32446;DHT22;18899;50.748;7.102;2022-12-18T06:00:26;-4.50;99.90
32446;DHT22;18899;50.748;7.102;2022-12-18T06:02:52;-4.50;99.90
32446;DHT22;18899;50.748;7.102;2022-12-18T06:05:18;-4.40;99.90
32446;DHT22;18899;50.748;7.102;2022-12-18T06:07:43;-4.40;99.90
32446;DHT22;18899;50.748;7.102;2022-12-18T06:10:09;-4.40;99.90
32446;DHT22;18899;50.748;7.102;2022-12-18T06:12:35;-4.30;99.90
32446;DHT22;18899;50.748;7.102;2022-12-18T06:15:01;-4.30;99.90
32446;DHT22;18899;50.748;7.102;2022-12-18T06:17:31;-4.30;99.90
32446;DHT22;18899;50.748;7.102;2022-12-18T06:19:57;-4.30;99.90
32446;DHT22;18899;50.748;7.102;2022-12-18T06:22:22;-4.30;99.90
32446;DHT22;18899;50.748;7.102;2022-12-18T06:24:48;-4.20;99.90
32446;DHT22;18899;50.748;7.102;2022-12-18T06:27:14;-4.20;99.90
32446;DHT22;18899;50.748;7.102;2022-12-18T06:29:40;-4.20;99.90
32446;DHT22;18899;50.748;7.102;2022-12-18T06:32:05;-4.10;99.90
32446;DHT22;18899;50.748;7.102;2022-12-18T06:34:31;-4.10;99.90
32446;DHT22;18899;50.748;7.102;2022-12-18T06:36:58;-4.10;99.90
32446;DHT22;18899;50.748;7.102;2022-12-18T06:39:23;-4.00;99.90
32446;DHT22;18899;50.748;7.102;2022-12-18T06:41:49;-4.10;99.90
32446;DHT22;18899;50.748;7.102;2022-12-18T06:44:15;-4.10;99.90
32446;DHT22;18899;50.748;7.102;2022-12-18T06:46:40;-4.10;99.90
32446;DHT22;18899;50.748;7.102;2022-12-18T06:49:06;-4.10;99.90
32446;DHT22;18899;50.748;7.102;2022-12-18T06:51:32;-4.10;99.90
32446;DHT22;18899;50.748;7.102;2022-12-18T06:53:57;-4.10;99.90
32446;DHT22;18899;50.748;7.102;2022-12-18T06:56:23;-4.10;99.90
32446;DHT22;18899;50.748;7.102;2022-12-18T06:58:48;-4.10;99.90
32446;DHT22;18899;50.748;7.102;2022-12-18T07:01:14;-4.20;99.90
32446;DHT22;18899;50.748;7.102;2022-12-18T07:03:40;-4.30;99.90
32446;DHT22;18899;50.748;7.102;2022-12-18T07:06:06;-4.50;99.90
32446;DHT22;18899;50.748;7.102;2022-12-18T07:08:37;-4.60;99.90
32446;DHT22;18899;50.748;7.102;2022-12-18T07:11:04;-4.80;99.90
32446;DHT22;18899;50.748;7.102;2022-12-18T07:13:30;-4.50;99.90
32446;DHT22;18899;50.748;7.102;2022-12-18T07:16:02;-4.30;99.90
32446;DHT22;18899;50.748;7.102;2022-12-18T07:18:28;-4.20;99.90
32446;DHT22;18899;50.748;7.102;2022-12-18T07:20:53;-4.20;99.90
32446;DHT22;18899;50.748;7.102;2022-12-18T07:23:19;-4.10;99.90
32446;DHT22;18899;50.748;7.102;2022-12-18T07:25:44;-4.10;99.90
32446;DHT22;18899;50.748;7.102;2022-12-18T07:28:10;-4.00;99.90
32446;DHT22;18899;50.748;7.102;2022-12-18T07:30:37;-4.00;99.90
32446;DHT22;18899;50.748;7.102;2022-12-18T07:33:03;-4.00;99.90
32446;DHT22;18899;50.748;7.102;2022-12-18T07:35:29;-4.10;99.90
32446;DHT22;18899;50.748;7.102;2022-12-18T07:37:54;-4.00;99.90
32446;DHT22;18899;50.748;7.102;2022-12-18T07:40:20;-3.90;99.90
32446;DHT22;18899;50.748;7.102;2022-12-18T07:42:45;-3.90;99.90
32446;DHT22;18899;50.748;7.102;2022-12-18T07:45:11;-3.90;99.90
32446;DHT22;18899;50.748;7.102;2022-12-18T07:47:36;-3.80;99.90
32446;DHT22;18899;50.748;7.102;2022-12-18T07:50:03;-3.80;99.90
32446;DHT22;18899;50.748;7.102;2022-12-18T07:52:29;-3.80;99.90
32446;DHT22;18899;50.748;7.102;2022-12-18T07:54:54;-3.70;99.90
32446;DHT22;18899;50.748;7.102;2022-12-18T07:57:20;-3.70;99.90
32446;DHT22;18899;50.748;7.102;2022-12-18T07:59:46;-3.70;99.90
32446;DHT22;18899;50.748;7.102;2022-12-18T08:02:11;-3.60;99.90
32446;DHT22;18899;50.748;7.102;2022-12-18T08:04:37;-3.60;99.90
32446;DHT22;18899;50.748;7.102;2022-12-18T08:07:03;-3.60;99.90
32446;DHT22;18899;50.748;7.102;2022-12-18T08:09:28;-3.60;99.90
32446;DHT22;18899;50.748;7.102;2022-12-18T08:11:54;-3.50;99.90
32446;DHT22;18899;50.748;7.102;2022-12-18T08:14:19;-3.50;99.90
32446;DHT22;18899;50.748;7.102;2022-12-18T08:16:45;-3.40;99.90
32446;DHT22;18899;50.748;7.102;2022-12-18T08:19:10;-3.30;99.90
32446;DHT22;18899;50.748;7.102;2022-12-18T08:21:37;-3.30;99.90
32446;DHT22;18899;50.748;7.102;2022-12-18T08:24:03;-3.30;99.90
32446;DHT22;18899;50.748;7.102;2022-12-18T08:26:30;-3.20;99.90
32446;DHT22;18899;50.748;7.102;2022-12-18T08:28:57;-3.10;99.90
32446;DHT22;18899;50.748;7.102;2022-12-18T08:31:25;-3.10;99.90
32446;DHT22;18899;50.748;7.102;2022-12-18T08:33:52;-3.10;99.90
32446;DHT22;18899;50.748;7.102;2022-12-18T08:36:19;-3.00;99.90
32446;DHT22;18899;50.748;7.102;2022-12-18T08:38:45;-2.90;99.90
32446;DHT22;18899;50.748;7.102;2022-12-18T08:41:12;-2.80;99.90
32446;DHT22;18899;50.748;7.102;2022-12-18T08:43:39;-2.70;99.90
32446;DHT22;18899;50.748;7.102;2022-12-18T08:46:25;-2.50;99.90
32446;DHT22;18899;50.748;7.102;2022-12-18T08:48:53;-2.10;99.90
32446;DHT22;18899;50.748;7.102;2022-12-18T08:51:19;-1.70;99.90
32446;DHT22;18899;50.748;7.102;2022-12-18T08:53:45;-1.30;99.90
32446;DHT22;18899;50.748;7.102;2022-12-18T08:56:12;-1.20;99.90
32446;DHT22;18899;50.748;7.102;2022-12-18T08:58:38;-1.20;99.90
32446;DHT22;18899;50.748;7.102;2022-12-18T09:01:05;-1.10;99.90
32446;DHT22;18899;50.748;7.102;2022-12-18T09:03:31;-0.90;99.90
32446;DHT22;18899;50.748;7.102;2022-12-18T09:05:56;-0.70;99.90
32446;DHT22;18899;50.748;7.102;2022-12-18T09:08:22;-0.50;99.90
32446;DHT22;18899;50.748;7.102;2022-12-18T09:10:49;-0.40;99.90
32446;DHT22;18899;50.748;7.102;2022-12-18T09:13:16;-0.30;99.90
32446;DHT22;18899;50.748;7.102;2022-12-18T09:15:47;-0.40;99.90
32446;DHT22;18899;50.748;7.102;2022-12-18T09:18:14;-0.20;99.90
32446;DHT22;18899;50.748;7.102;2022-12-18T09:20:40;-0.20;99.90
32446;DHT22;18899;50.748;7.102;2022-12-18T09:23:06;-0.10;99.90
32446;DHT22;18899;50.748;7.102;2022-12-18T09:25:33;-0.10;99.90
32446;DHT22;18899;50.748;7.102;2022-12-18T09:28:03;-0.20;99.90
32446;DHT22;18899;50.748;7.102;2022-12-18T09:30:29;-0.30;99.90
32446;DHT22;18899;50.748;7.102;2022-12-18T09:32:55;-0.40;99.90
32446;DHT22;18899;50.748;7.102;2022-12-18T09:35:21;-0.40;99.90
32446;DHT22;18899;50.748;7.102;2022-12-18T09:37:46;-0.10;99.90
32446;DHT22;18899;50.748;7.102;2022-12-18T09:40:18;0.20;99.90
32446;DHT22;18899;50.748;7.102;2022-12-18T09:42:53;0.70;99.90
32446;DHT22;18899;50.748;7.102;2022-12-18T09:45:20;1.20;99.90
32446;DHT22;18899;50.748;7.102;2022-12-18T09:47:48;1.40;99.90
32446;DHT22;18899;50.748;7.102;2022-12-18T09:52:52;1.50;99.90
32446;DHT22;18899;50.748;7.102;2022-12-18T09:55:28;1.40;99.90
32446;DHT22;18899;50.748;7.102;2022-12-18T09:58:00;1.60;99.90
32446;DHT22;18899;50.748;7.102;2022-12-18T10:00:28;1.80;99.90
32446;DHT22;18899;50.748;7.102;2022-12-18T10:03:00;1.50;99.90
32446;DHT22;18899;50.748;7.102;2022-12-18T10:08:29;1.40;99.90
32446;DHT22;18899;50.748;7.102;2022-12-18T10:11:03;1.10;99.90
32446;DHT22;18899;50.748;7.102;2022-12-18T10:13:42;0.80;99.90
32446;DHT22;18899;50.748;7.102;2022-12-18T10:16:36;0.70;99.90
32446;DHT22;18899;50.748;7.102;2022-12-18T10:19:15;0.70;99.90
32446;DHT22;18899;50.748;7.102;2022-12-18T10:21:55;0.60;99.90
32446;DHT22;18899;50.748;7.102;2022-12-18T10:26:59;0.60;99.90
32446;DHT22;18899;50.748;7.102;2022-12-18T10:29:34;0.80;99.90
32446;DHT22;18899;50.748;7.102;2022-12-18T10:31:59;0.80;99.90
32446;DHT22;18899;50.748;7.102;2022-12-18T10:34:25;0.90;99.90
32446;DHT22;18899;50.748;7.102;2022-12-18T10:36:50;1.00;99.90
32446;DHT22;18899;50.748;7.102;2022-12-18T10:39:18;0.90;99.90
32446;DHT22;18899;50.748;7.102;2022-12-18T10:41:44;0.90;99.90
32446;DHT22;18899;50.748;7.102;2022-12-18T10:46:37;0.90;99.90
32446;DHT22;18899;50.748;7.102;2022-12-18T10:49:02;1.00;99.90
32446;DHT22;18899;50.748;7.102;2022-12-18T10:51:33;1.00;99.90
32446;DHT22;18899;50.748;7.102;2022-12-18T10:54:02;0.90;99.90
32446;DHT22;18899;50.748;7.102;2022-12-18T10:56:30;1.00;99.90
32446;DHT22;18899;50.748;7.102;2022-12-18T10:59:16;1.00;99.90
32446;DHT22;18899;50.748;7.102;2022-12-18T11:01:51;0.90;99.90
32446;DHT22;18899;50.748;7.102;2022-12-18T11:04:20;1.00;99.90
32446;DHT22;18899;50.748;7.102;2022-12-18T11:06:54;0.90;99.90
32446;DHT22;18899;50.748;7.102;2022-12-18T11:09:24;0.90;99.90
32446;DHT22;18899;50.748;7.102;2022-12-18T11:11:53;0.90;99.90
32446;DHT22;18899;50.748;7.102;2022-12-18T11:14:34;1.00;99.90
32446;DHT22;18899;50.748;7.102;2022-12-18T11:17:38;1.10;99.90
32446;DHT22;18899;50.748;7.102;2022-12-18T11:20:25;1.10;99.90
32446;DHT22;18899;50.748;7.102;2022-12-18T11:23:05;1.10;99.90
32446;DHT22;18899;50.748;7.102;2022-12-18T11:25:35;1.00;99.90
32446;DHT22;18899;50.748;7.102;2022-12-18T11:28:24;1.10;99.90
32446;DHT22;18899;50.748;7.102;2022-12-18T11:30:48;1.00;99.90
32446;DHT22;18899;50.748;7.102;2022-12-18T11:33:21;1.10;99.90
32446;DHT22;18899;50.748;7.102;2022-12-18T11:35:56;1.10;99.90
32446;DHT22;18899;50.748;7.102;2022-12-18T11:38:32;1.00;99.90
32446;DHT22;18899;50.748;7.102;2022-12-18T11:41:26;0.80;99.90
32446;DHT22;18899;50.748;7.102;2022-12-18T11:44:16;0.90;99.90
32446;DHT22;18899;50.748;7.102;2022-12-18T11:46:53;1.00;99.90
32446;DHT22;18899;50.748;7.102;2022-12-18T11:49:32;1.00;99.90
32446;DHT22;18899;50.748;7.102;2022-12-18T11:52:23;0.80;99.90
32446;DHT22;18899;50.748;7.102;2022-12-18T11:54:55;0.80;99.90
32446;DHT22;18899;50.748;7.102;2022-12-18T12:00:20;0.80;99.90
32446;DHT22;18899;50.748;7.102;2022-12-18T12:03:09;1.00;99.90
32446;DHT22;18899;50.748;7.102;2022-12-18T12:05:42;0.90;99.90
32446;DHT22;18899;50.748;7.102;2022-12-18T12:08:50;1.00;99.90
32446;DHT22;18899;50.748;7.102;2022-12-18T12:15:23;0.90;99.90
32446;DHT22;18899;50.748;7.102;2022-12-18T12:17:30;0.90;99.90
32446;DHT22;18899;50.748;7.102;2022-12-18T12:25:57;1.00;99.90
32446;DHT22;18899;50.748;7.102;2022-12-18T12:34:06;1.10;99.90
32446;DHT22;18899;50.748;7.102;2022-12-18T12:36:46;1.00;99.90
32446;DHT22;18899;50.748;7.102;2022-12-18T12:39:19;1.00;99.90
32446;DHT22;18899;50.748;7.102;2022-12-18T12:41:46;1.20;99.90
32446;DHT22;18899;50.748;7.102;2022-12-18T12:44:40;1.10;99.90
32446;DHT22;18899;50.748;7.102;2022-12-18T12:47:16;1.10;99.90
32446;DHT22;18899;50.748;7.102;2022-12-18T12:49:42;1.20;99.90
32446;DHT22;18899;50.748;7.102;2022-12-18T12:52:15;1.20;99.90
32446;DHT22;18899;50.748;7.102;2022-12-18T12:54:42;1.20;99.90
32446;DHT22;18899;50.748;7.102;2022-12-18T12:57:20;1.30;99.90
32446;DHT22;18899;50.748;7.102;2022-12-18T13:00:07;0.90;99.90
32446;DHT22;18899;50.748;7.102;2022-12-18T13:02:43;0.90;99.90
32446;DHT22;18899;50.748;7.102;2022-12-18T13:08:31;1.00;99.90
32446;DHT22;18899;50.748;7.102;2022-12-18T13:10:59;1.10;99.90
32446;DHT22;18899;50.748;7.102;2022-12-18T13:13:54;1.10;99.90
32446;DHT22;18899;50.748;7.102;2022-12-18T13:16:23;1.30;99.90
32446;DHT22;18899;50.748;7.102;2022-12-18T13:18:53;1.30;99.90
32446;DHT22;18899;50.748;7.102;2022-12-18T13:21:27;1.30;99.90
32446;DHT22;18899;50.748;7.102;2022-12-18T13:23:53;1.30;99.90
32446;DHT22;18899;50.748;7.102;2022-12-18T13:36:45;1.30;99.90
32446;DHT22;18899;50.748;7.102;2022-12-18T13:39:32;1.20;99.90
32446;DHT22;18899;50.748;7.102;2022-12-18T13:44:35;1.20;99.90
32446;DHT22;18899;50.748;7.102;2022-12-18T13:47:02;1.20;99.90
32446;DHT22;18899;50.748;7.102;2022-12-18T13:49:38;1.20;99.90
32446;DHT22;18899;50.748;7.102;2022-12-18T13:52:17;1.10;99.90
32446;DHT22;18899;50.748;7.102;2022-12-18T13:54:47;0.90;99.90
32446;DHT22;18899;50.748;7.102;2022-12-18T13:59:53;1.00;99.90
32446;DHT22;18899;50.748;7.102;2022-12-18T14:02:24;1.00;99.90
32446;DHT22;18899;50.748;7.102;2022-12-18T14:04:51;1.10;99.90
32446;DHT22;18899;50.748;7.102;2022-12-18T14:09:55;1.10;99.90
32446;DHT22;18899;50.748;7.102;2022-12-18T14:12:30;1.20;99.90
32446;DHT22;18899;50.748;7.102;2022-12-18T14:15:20;1.10;99.90
32446;DHT22;18899;50.748;7.102;2022-12-18T14:17:47;1.10;99.90
32446;DHT22;18899;50.748;7.102;2022-12-18T14:20:15;1.10;99.90
32446;DHT22;18899;50.748;7.102;2022-12-18T14:22:46;1.00;99.90
32446;DHT22;18899;50.748;7.102;2022-12-18T14:27:41;0.80;99.90
32446;DHT22;18899;50.748;7.102;2022-12-18T14:30:29;0.90;99.90
32446;DHT22;18899;50.748;7.102;2022-12-18T14:33:24;0.90;99.90
32446;DHT22;18899;50.748;7.102;2022-12-18T14:36:02;0.80;99.90
32446;DHT22;18899;50.748;7.102;2022-12-18T14:38:52;0.70;99.90
32446;DHT22;18899;50.748;7.102;2022-12-18T14:41:19;0.70;99.90
32446;DHT22;18899;50.748;7.102;2022-12-18T14:43:48;0.80;99.90
32446;DHT22;18899;50.748;7.102;2022-12-18T14:48:58;0.70;99.90
32446;DHT22;18899;50.748;7.102;2022-12-18T14:51:27;0.70;99.90
32446;DHT22;18899;50.748;7.102;2022-12-18T14:53:59;0.70;99.90
32446;DHT22;18899;50.748;7.102;2022-12-18T14:56:31;0.60;99.90
32446;DHT22;18899;50.748;7.102;2022-12-18T14:59:16;0.60;99.90
32446;DHT22;18899;50.748;7.102;2022-12-18T15:04:35;0.60;99.90
32446;DHT22;18899;50.748;7.102;2022-12-18T15:09:35;0.40;99.90
32446;DHT22;18899;50.748;7.102;2022-12-18T15:12:02;0.40;99.90
32446;DHT22;18899;50.748;7.102;2022-12-18T15:17:06;0.40;99.90
32446;DHT22;18899;50.748;7.102;2022-12-18T15:19:41;0.50;99.90
32446;DHT22;18899;50.748;7.102;2022-12-18T15:22:26;0.40;99.90
32446;DHT22;18899;50.748;7.102;2022-12-18T15:24:54;0.40;99.90
32446;DHT22;18899;50.748;7.102;2022-12-18T15:27:34;0.40;99.90
32446;DHT22;18899;50.748;7.102;2022-12-18T15:32:31;0.40;99.90
32446;DHT22;18899;50.748;7.102;2022-12-18T15:37:36;0.40;99.90
32446;DHT22;18899;50.748;7.102;2022-12-18T15:40:02;0.30;99.90
32446;DHT22;18899;50.748;7.102;2022-12-18T15:42:28;0.20;99.90
32446;DHT22;18899;50.748;7.102;2022-12-18T15:45:13;0.30;99.90
32446;DHT22;18899;50.748;7.102;2022-12-18T15:47:39;0.40;99.90
32446;DHT22;18899;50.748;7.102;2022-12-18T15:50:07;0.20;99.90
32446;DHT22;18899;50.748;7.102;2022-12-18T15:52:39;0.30;99.90
32446;DHT22;18899;50.748;7.102;2022-12-18T15:55:18;0.30;99.90
32446;DHT22;18899;50.748;7.102;2022-12-18T15:58:03;0.30;99.90
32446;DHT22;18899;50.748;7.102;2022-12-18T16:00:29;0.20;99.90
32446;DHT22;18899;50.748;7.102;2022-12-18T16:02:55;0.20;99.90
32446;DHT22;18899;50.748;7.102;2022-12-18T16:05:21;0.10;99.90
32446;DHT22;18899;50.748;7.102;2022-12-18T16:07:48;0.10;99.90
32446;DHT22;18899;50.748;7.102;2022-12-18T16:10:14;0.20;99.90
32446;DHT22;18899;50.748;7.102;2022-12-18T16:12:41;0.20;99.90
32446;DHT22;18899;50.748;7.102;2022-12-18T16:15:08;0.20;99.90
32446;DHT22;18899;50.748;7.102;2022-12-18T16:17:35;0.20;99.90
32446;DHT22;18899;50.748;7.102;2022-12-18T16:20:01;0.10;99.90
32446;DHT22;18899;50.748;7.102;2022-12-18T16:22:28;0.00;99.90
32446;DHT22;18899;50.748;7.102;2022-12-18T16:24:55;0.00;99.90
32446;DHT22;18899;50.748;7.102;2022-12-18T16:27:21;0.10;99.90
32446;DHT22;18899;50.748;7.102;2022-12-18T16:29:47;0.10;99.90
32446;DHT22;18899;50.748;7.102;2022-12-18T16:32:15;0.20;99.90
32446;DHT22;18899;50.748;7.102;2022-12-18T16:34:41;0.20;99.90
32446;DHT22;18899;50.748;7.102;2022-12-18T16:37:09;0.20;99.90
32446;DHT22;18899;50.748;7.102;2022-12-18T16:39:36;0.20;99.90
32446;DHT22;18899;50.748;7.102;2022-12-18T16:42:03;0.20;99.90
32446;DHT22;18899;50.748;7.102;2022-12-18T16:44:29;0.20;99.90
32446;DHT22;18899;50.748;7.102;2022-12-18T16:46:55;0.20;99.90
32446;DHT22;18899;50.748;7.102;2022-12-18T16:49:27;0.20;99.90
32446;DHT22;18899;50.748;7.102;2022-12-18T16:51:52;0.10;99.90
32446;DHT22;18899;50.748;7.102;2022-12-18T16:54:18;0.10;99.90
32446;DHT22;18899;50.748;7.102;2022-12-18T16:56:44;0.20;99.90
32446;DHT22;18899;50.748;7.102;2022-12-18T16:59:12;0.00;99.90
32446;DHT22;18899;50.748;7.102;2022-12-18T17:01:38;0.00;99.90
32446;DHT22;18899;50.748;7.102;2022-12-18T17:04:05;0.00;99.90
32446;DHT22;18899;50.748;7.102;2022-12-18T17:06:34;0.10;99.90
32446;DHT22;18899;50.748;7.102;2022-12-18T17:09:06;0.20;99.90
32446;DHT22;18899;50.748;7.102;2022-12-18T17:11:33;0.20;99.90
32446;DHT22;18899;50.748;7.102;2022-12-18T17:13:59;0.20;99.90
32446;DHT22;18899;50.748;7.102;2022-12-18T17:16:25;0.10;99.90
32446;DHT22;18899;50.748;7.102;2022-12-18T17:18:52;0.10;99.90
32446;DHT22;18899;50.748;7.102;2022-12-18T17:21:17;0.00;99.90
32446;DHT22;18899;50.748;7.102;2022-12-18T17:23:43;0.10;99.90
32446;DHT22;18899;50.748;7.102;2022-12-18T17:26:10;0.10;99.90
32446;DHT22;18899;50.748;7.102;2022-12-18T17:28:37;0.00;99.90
32446;DHT22;18899;50.748;7.102;2022-12-18T17:31:10;0.00;99.90